Time;durP1;ratioP1;P1;durP2;ratioP2;P2;SDS_P1;SDS_P2;PMS_P1;PMS_P2;Temp;Humidity;BMP_temperature;BMP_pressure;BME280_temperature;BME280_humidity;BME280_pressure;Samples;Min_cycle;Max_cycle;Signal;HPM_P1;HPM_P2
2021/01/21 00:00:36;;;;;;;2.95;1.00;;;12.50;99.90;;;;;;5033922;28;20503;-82
2021/01/21 00:03:02;;;;;;;2.38;1.10;;;12.30;99.90;;;;;;5034088;28;20487;-82
2021/01/21 00:05:28;;;;;;;3.05;1.20;;;12.30;99.90;;;;;;5044343;28;20060;-82
2021/01/21 00:07:53;;;;;;;5.78;1.17;;;12.20;99.90;;;;;;5033860;28;20025;-82
2021/01/21 00:10:19;;;;;;;2.55;1.27;;;12.20;99.90;;;;;;5034089;28;20036;-82
2021/01/21 00:12:45;;;;;;;3.58;1.40;;;12.10;99.90;;;;;;5033753;28;20033;-83
2021/01/21 00:15:10;;;;;;;4.68;1.70;;;11.90;99.90;;;;;;5033831;28;20096;-83
2021/01/21 00:17:36;;;;;;;3.22;1.25;;;11.80;99.90;;;;;;5033887;28;20034;-83
2021/01/21 00:20:04;;;;;;;4.80;1.58;;;11.70;99.90;;;;;;5033106;28;20025;-83
2021/01/21 00:22:29;;;;;;;4.38;1.50;;;11.70;99.90;;;;;;5033698;28;20068;-83
2021/01/21 00:24:55;;;;;;;3.38;1.58;;;11.50;99.90;;;;;;5033575;28;20076;-83
2021/01/21 00:27:20;;;;;;;2.40;1.27;;;11.50;99.90;;;;;;5033362;28;20025;-83
2021/01/21 00:29:46;;;;;;;5.85;1.45;;;11.40;99.90;;;;;;5033558;28;20021;-83
2021/01/21 00:32:12;;;;;;;3.58;1.25;;;11.20;99.90;;;;;;5033510;28;20105;-83
2021/01/21 00:34:37;;;;;;;3.50;1.63;;;11.20;99.90;;;;;;5033034;28;20029;-83
2021/01/21 00:37:03;;;;;;;4.30;1.38;;;11.10;99.90;;;;;;5033276;28;20171;-82
2021/01/21 00:39:28;;;;;;;3.40;1.40;;;11.10;99.90;;;;;;5033559;28;20060;-82
2021/01/21 00:41:54;;;;;;;4.88;1.70;;;11.00;99.90;;;;;;5032889;28;20037;-82
2021/01/21 00:44:20;;;;;;;6.88;1.60;;;11.00;99.90;;;;;;5033033;28;20109;-82
2021/01/21 00:46:45;;;;;;;3.58;1.40;;;11.00;99.90;;;;;;5051576;28;20025;-82
2021/01/21 00:49:11;;;;;;;2.90;1.33;;;11.00;99.90;;;;;;5053071;28;20108;-82
2021/01/21 00:51:36;;;;;;;4.72;1.35;;;10.90;99.90;;;;;;5051966;28;20013;-82
2021/01/21 00:54:02;;;;;;;3.63;1.42;;;10.90;99.90;;;;;;5052576;28;20498;-82
2021/01/21 00:56:28;;;;;;;4.50;1.60;;;10.90;99.90;;;;;;5052578;28;20029;-82
2021/01/21 00:58:53;;;;;;;3.25;1.20;;;10.90;99.90;;;;;;5052764;28;20128;-82
2021/01/21 01:01:19;;;;;;;2.92;1.33;;;10.80;99.90;;;;;;5048492;28;20032;-82
2021/01/21 01:03:45;;;;;;;3.72;1.20;;;10.80;99.90;;;;;;5052830;28;20398;-82
2021/01/21 01:06:10;;;;;;;3.28;1.25;;;10.80;99.90;;;;;;5052971;28;20051;-82
2021/01/21 01:08:36;;;;;;;2.45;1.17;;;10.80;99.90;;;;;;5052763;28;20021;-82
2021/01/21 01:11:03;;;;;;;2.22;1.08;;;10.80;99.90;;;;;;5052350;28;20490;-82
2021/01/21 01:13:29;;;;;;;3.28;1.25;;;10.80;99.90;;;;;;5052907;28;20100;-82
2021/01/21 01:15:54;;;;;;;2.88;1.30;;;10.70;99.90;;;;;;5051849;28;20574;-82
2021/01/21 01:18:20;;;;;;;2.60;1.20;;;10.70;99.90;;;;;;5052617;28;20031;-82
2021/01/21 01:20:48;;;;;;;2.47;1.15;;;10.70;99.90;;;;;;5052690;28;20032;-82
2021/01/21 01:23:13;;;;;;;2.05;1.05;;;10.70;99.90;;;;;;5052550;28;20025;-82
2021/01/21 01:25:39;;;;;;;3.03;1.30;;;10.70;99.90;;;;;;5052382;28;20036;-82
2021/01/21 01:28:05;;;;;;;2.70;1.00;;;10.70;99.90;;;;;;5052440;28;20056;-82
2021/01/21 01:30:30;;;;;;;1.77;1.10;;;10.80;99.90;;;;;;5051687;28;20021;-82
2021/01/21 01:32:56;;;;;;;1.90;1.10;;;10.80;99.90;;;;;;5052434;28;20029;-82
2021/01/21 01:35:21;;;;;;;1.98;0.98;;;10.80;99.90;;;;;;5052645;28;20505;-82
2021/01/21 01:37:47;;;;;;;1.38;0.80;;;10.70;99.90;;;;;;5052300;28;20116;-82
2021/01/21 01:40:14;;;;;;;2.47;1.00;;;10.70;99.90;;;;;;5051163;28;20029;-83
2021/01/21 01:42:41;;;;;;;1.45;0.90;;;10.80;99.90;;;;;;5052562;28;20036;-83
2021/01/21 01:45:08;;;;;;;1.98;0.90;;;10.80;99.90;;;;;;5052117;28;20032;-83
2021/01/21 01:47:37;;;;;;;2.15;1.00;;;10.80;99.90;;;;;;5051932;28;20024;-83
2021/01/21 01:50:03;;;;;;;2.05;0.80;;;10.90;99.90;;;;;;5052176;28;20029;-83
2021/01/21 01:52:29;;;;;;;2.25;1.02;;;10.90;99.90;;;;;;5052262;28;20036;-83
2021/01/21 01:54:55;;;;;;;1.65;0.88;;;10.90;99.90;;;;;;5043285;28;20040;-83
2021/01/21 01:57:27;;;;;;;3.38;1.00;;;10.90;99.90;;;;;;5032157;28;20038;-83
2021/01/21 01:59:58;;;;;;;2.22;1.20;;;10.90;99.90;;;;;;5032179;28;20046;-82
2021/01/21 02:02:24;;;;;;;2.25;0.90;;;10.90;99.90;;;;;;5032199;28;20048;-82
2021/01/21 02:04:49;;;;;;;2.85;0.88;;;10.90;99.90;;;;;;5032174;28;20029;-82
2021/01/21 02:07:15;;;;;;;2.22;0.80;;;10.80;99.90;;;;;;5032159;28;20101;-82
2021/01/21 02:09:42;;;;;;;1.38;0.73;;;10.80;99.90;;;;;;5043508;28;20021;-82
2021/01/21 02:12:26;;;;;;;1.92;0.88;;;10.70;99.90;;;;;;5052055;28;20021;-82
2021/01/21 02:15:04;;;;;;;1.60;0.90;;;10.80;99.90;;;;;;5052186;28;20036;-82
2021/01/21 02:17:35;;;;;;;1.40;0.82;;;10.70;99.90;;;;;;5052111;28;20029;-82
2021/01/21 02:20:29;;;;;;;1.73;0.90;;;10.80;99.90;;;;;;5051014;28;20503;-82
2021/01/21 02:23:25;;;;;;;1.08;0.98;;;10.80;99.90;;;;;;5052070;28;20394;-82
2021/01/21 02:26:03;;;;;;;1.25;0.85;;;10.80;99.90;;;;;;5051936;28;20021;-82
2021/01/21 02:28:47;;;;;;;2.08;0.95;;;10.80;99.90;;;;;;5051801;28;20021;-82
2021/01/21 02:31:43;;;;;;;2.47;0.88;;;10.80;99.90;;;;;;5051890;28;20032;-82
2021/01/21 02:34:44;;;;;;;0.80;0.75;;;10.70;99.90;;;;;;5051961;28;20029;-82
2021/01/21 02:37:30;;;;;;;1.15;0.73;;;10.70;99.90;;;;;;5011100;28;20121;-83
2021/01/21 02:39:58;;;;;;;1.58;0.70;;;10.70;99.90;;;;;;5012182;28;20387;-82
2021/01/21 02:42:24;;;;;;;1.90;0.90;;;10.60;99.90;;;;;;5012087;28;20044;-82
2021/01/21 02:44:50;;;;;;;1.90;0.90;;;10.50;99.90;;;;;;5012133;28;20026;-82
2021/01/21 02:47:18;;;;;;;0.90;0.68;;;10.50;99.90;;;;;;5012077;28;20561;-82
2021/01/21 02:49:46;;;;;;;1.20;0.60;;;10.60;99.90;;;;;;5031624;28;20029;-82
2021/01/21 02:52:24;;;;;;;0.90;0.80;;;10.50;99.90;;;;;;5031531;28;20025;-82
2021/01/21 02:54:55;;;;;;;1.20;0.75;;;10.50;99.90;;;;;;5031930;28;20033;-82
2021/01/21 02:57:27;;;;;;;0.95;0.65;;;10.50;99.90;;;;;;5031771;28;20026;-82
2021/01/21 02:59:57;;;;;;;0.98;0.50;;;10.40;99.90;;;;;;5032998;28;20045;-82
2021/01/21 03:02:26;;;;;;;0.60;0.50;;;10.40;99.90;;;;;;5037353;28;20502;-82
2021/01/21 03:04:53;;;;;;;0.63;0.57;;;10.40;99.90;;;;;;5052511;28;20025;-82
2021/01/21 03:07:22;;;;;;;0.50;0.50;;;10.50;99.90;;;;;;5034858;28;20020;-82
2021/01/21 03:09:48;;;;;;;0.80;0.70;;;10.50;99.90;;;;;;5035171;28;20021;-82
2021/01/21 03:12:32;;;;;;;1.10;0.52;;;10.50;99.90;;;;;;5035120;28;20506;-82
2021/01/21 03:14:57;;;;;;;1.48;0.70;;;10.30;99.90;;;;;;5035171;28;20130;-82
2021/01/21 03:17:25;;;;;;;1.58;0.60;;;10.30;99.90;;;;;;5034949;28;20029;-82
2021/01/21 03:19:51;;;;;;;1.17;0.80;;;10.30;99.90;;;;;;5037225;28;20387;-82
2021/01/21 03:22:17;;;;;;;1.67;0.68;;;10.30;99.90;;;;;;5053282;28;20039;-82
2021/01/21 03:24:43;;;;;;;0.90;0.63;;;10.30;99.90;;;;;;5054809;28;20060;-82
2021/01/21 03:27:09;;;;;;;1.70;0.75;;;10.30;99.90;;;;;;5053261;28;20104;-82
2021/01/21 03:29:35;;;;;;;2.13;0.63;;;10.30;99.90;;;;;;5054828;28;20491;-82
2021/01/21 03:32:01;;;;;;;1.15;0.70;;;10.30;99.90;;;;;;5054757;28;20021;-82
2021/01/21 03:34:27;;;;;;;0.82;0.70;;;10.10;99.90;;;;;;5052460;28;20116;-82
2021/01/21 03:36:52;;;;;;;0.77;0.60;;;10.00;99.90;;;;;;5035482;28;20053;-82
2021/01/21 03:39:18;;;;;;;0.93;0.70;;;10.00;99.90;;;;;;5034642;28;20076;-82
2021/01/21 03:41:44;;;;;;;0.98;0.70;;;10.20;99.90;;;;;;5034591;28;20036;-82
2021/01/21 03:44:09;;;;;;;1.42;0.70;;;10.10;99.90;;;;;;5034447;28;20029;-82
2021/01/21 03:46:35;;;;;;;0.63;0.63;;;10.10;99.90;;;;;;5034406;28;20021;-82
2021/01/21 03:49:01;;;;;;;0.90;0.73;;;10.10;99.90;;;;;;5035319;28;20433;-82
2021/01/21 03:51:28;;;;;;;1.70;0.65;;;10.00;99.90;;;;;;5054033;28;20017;-82
2021/01/21 03:53:54;;;;;;;0.73;0.60;;;9.90;99.90;;;;;;5054338;28;20084;-82
2021/01/21 03:56:19;;;;;;;0.80;0.75;;;9.90;99.90;;;;;;5052964;28;20024;-82
2021/01/21 03:58:45;;;;;;;0.95;0.70;;;9.90;99.90;;;;;;5054064;28;20068;-82
2021/01/21 04:01:11;;;;;;;0.88;0.60;;;9.90;99.90;;;;;;5045433;28;20368;-82
2021/01/21 04:03:36;;;;;;;1.02;0.70;;;9.90;99.90;;;;;;5033973;28;20052;-82
2021/01/21 04:06:02;;;;;;;0.65;0.60;;;10.00;99.90;;;;;;5033888;28;20021;-82
2021/01/21 04:08:28;;;;;;;1.10;0.80;;;10.00;99.90;;;;;;5034513;28;20442;-82
2021/01/21 04:10:54;;;;;;;1.02;0.60;;;10.00;99.90;;;;;;5035018;28;20032;-82
2021/01/21 04:13:20;;;;;;;1.05;0.60;;;10.00;99.90;;;;;;5052866;28;20021;-82
2021/01/21 04:15:46;;;;;;;0.50;0.50;;;9.90;99.90;;;;;;5053883;28;20082;-82
2021/01/21 04:18:15;;;;;;;0.70;0.50;;;10.00;99.90;;;;;;5054128;28;20029;-82
2021/01/21 04:20:41;;;;;;;0.68;0.57;;;10.10;99.90;;;;;;5053542;28;20029;-82
2021/01/21 04:23:07;;;;;;;0.77;0.68;;;10.10;99.90;;;;;;5053682;28;20503;-82
2021/01/21 04:25:32;;;;;;;1.38;0.60;;;10.20;99.90;;;;;;5052540;28;20021;-82
2021/01/21 04:27:58;;;;;;;0.77;0.65;;;10.20;99.90;;;;;;5053635;28;20052;-82
2021/01/21 04:30:24;;;;;;;0.88;0.70;;;10.10;99.90;;;;;;5053453;28;20025;-82
2021/01/21 04:32:49;;;;;;;1.30;0.98;;;10.20;99.90;;;;;;5053709;28;20463;-82
2021/01/21 04:35:15;;;;;;;0.75;0.60;;;10.20;99.90;;;;;;5053024;28;20498;-82
2021/01/21 04:37:41;;;;;;;1.52;0.80;;;10.20;99.90;;;;;;5053413;28;20033;-82
2021/01/21 04:40:07;;;;;;;2.03;0.80;;;10.30;99.90;;;;;;5036464;28;20610;-82
2021/01/21 04:42:34;;;;;;;1.95;0.80;;;10.30;99.90;;;;;;5033586;28;20044;-83
2021/01/21 04:45:00;;;;;;;2.22;0.73;;;10.20;99.90;;;;;;5033424;28;20032;-83
2021/01/21 04:47:27;;;;;;;1.40;0.65;;;10.20;99.90;;;;;;5033360;28;20022;-83
2021/01/21 04:49:53;;;;;;;1.20;0.80;;;10.20;99.90;;;;;;5032961;28;20032;-83
2021/01/21 04:52:21;;;;;;;1.15;0.73;;;10.30;99.90;;;;;;5033280;28;20021;-83
2021/01/21 04:55:01;;;;;;;1.15;0.73;;;10.20;99.90;;;;;;5047582;28;20517;-82
2021/01/21 04:57:43;;;;;;;1.40;0.95;;;10.20;99.90;;;;;;5053056;28;20033;-82
2021/01/21 05:00:10;;;;;;;0.95;0.80;;;10.10;99.90;;;;;;5052681;28;20568;-82
2021/01/21 05:02:38;;;;;;;0.90;0.60;;;10.00;99.90;;;;;;5012766;28;20108;-82
2021/01/21 05:05:09;;;;;;;2.60;1.20;;;9.90;99.90;;;;;;5013187;28;20129;-82
2021/01/21 05:07:38;;;;;;;1.23;0.80;;;10.00;99.90;;;;;;5027616;28;20072;-82
2021/01/21 05:10:06;;;;;;;1.88;0.75;;;10.00;99.90;;;;;;5033019;28;20017;-82
2021/01/21 05:12:32;;;;;;;0.60;0.60;;;10.00;99.90;;;;;;5032778;28;20056;-82
2021/01/21 05:14:57;;;;;;;1.33;0.80;;;10.00;99.90;;;;;;5032889;28;20053;-82
2021/01/21 05:17:23;;;;;;;2.13;0.90;;;10.00;99.90;;;;;;5032589;28;20038;-82
2021/01/21 05:19:52;;;;;;;1.65;0.80;;;9.90;99.90;;;;;;5033007;28;20526;-82
2021/01/21 05:22:21;;;;;;;2.33;0.80;;;9.90;99.90;;;;;;5031988;28;20057;-82
2021/01/21 05:24:47;;;;;;;1.25;0.90;;;9.80;99.90;;;;;;5041063;28;20029;-82
2021/01/21 05:27:14;;;;;;;1.83;0.80;;;9.80;99.90;;;;;;5052514;28;20224;-82
2021/01/21 05:29:44;;;;;;;1.75;0.90;;;9.90;99.90;;;;;;5051128;28;20482;-82
2021/01/21 05:32:15;;;;;;;0.70;0.70;;;9.90;99.90;;;;;;5051159;28;20025;-82
2021/01/21 05:34:43;;;;;;;1.15;0.70;;;9.90;99.90;;;;;;5052481;28;20029;-82
2021/01/21 05:37:11;;;;;;;1.17;0.70;;;10.00;99.90;;;;;;5052463;28;20082;-82
2021/01/21 05:39:44;;;;;;;1.33;0.73;;;10.00;99.90;;;;;;5050701;28;20390;-82
2021/01/21 05:42:10;;;;;;;1.77;0.70;;;10.00;99.90;;;;;;5051132;28;20029;-82
2021/01/21 05:44:37;;;;;;;0.88;0.70;;;10.00;99.90;;;;;;5052142;28;20112;-82
2021/01/21 05:47:04;;;;;;;1.38;0.70;;;10.10;99.90;;;;;;5052106;28;20502;-82
2021/01/21 05:49:31;;;;;;;1.88;0.90;;;10.10;99.90;;;;;;5052272;28;20025;-82
2021/01/21 05:51:57;;;;;;;2.33;0.90;;;10.10;99.90;;;;;;5052181;28;20108;-82
2021/01/21 05:54:27;;;;;;;1.38;1.00;;;10.20;99.90;;;;;;5042917;28;20017;-82
2021/01/21 05:57:01;;;;;;;8.35;5.63;;;10.20;99.90;;;;;;5033003;28;20112;-82
2021/01/21 05:59:28;;;;;;;1.60;0.80;;;10.20;99.90;;;;;;5051768;28;20080;-82
2021/01/21 06:01:57;;;;;;;0.73;0.73;;;10.20;99.90;;;;;;5037212;28;20033;-82
2021/01/21 06:04:27;;;;;;;0.77;0.70;;;10.20;99.90;;;;;;5032236;28;20033;-82
2021/01/21 06:06:54;;;;;;;1.02;0.65;;;10.20;99.90;;;;;;5032301;28;20044;-82
2021/01/21 06:09:30;;;;;;;0.68;0.60;;;10.30;99.90;;;;;;5032361;28;20360;-82
2021/01/21 06:12:03;;;;;;;1.00;0.80;;;10.30;99.90;;;;;;5032137;28;20025;-82
2021/01/21 06:14:29;;;;;;;2.38;0.95;;;10.30;99.90;;;;;;5032191;28;20033;-82
2021/01/21 06:16:56;;;;;;;1.42;0.90;;;10.30;99.90;;;;;;5031923;28;20041;-82
2021/01/21 06:19:22;;;;;;;1.98;1.08;;;10.30;99.90;;;;;;5032287;28;20079;-82
2021/01/21 06:22:00;;;;;;;2.20;1.30;;;10.30;99.90;;;;;;5032043;28;20037;-82
2021/01/21 06:24:30;;;;;;;2.33;0.98;;;10.30;99.90;;;;;;5031860;28;20025;-82
2021/01/21 06:26:59;;;;;;;1.83;1.02;;;10.30;99.90;;;;;;5032040;28;20021;-82
2021/01/21 06:29:28;;;;;;;2.97;1.00;;;10.30;99.90;;;;;;5048485;28;20025;-82
2021/01/21 06:32:02;;;;;;;1.48;0.82;;;10.30;99.90;;;;;;5051907;28;20029;-82
2021/01/21 06:34:31;;;;;;;1.20;1.10;;;10.30;99.90;;;;;;5054256;28;20021;-82
2021/01/21 06:36:59;;;;;;;2.00;0.98;;;10.30;99.90;;;;;;5055424;28;20029;-82
2021/01/21 06:39:32;;;;;;;3.70;1.52;;;10.30;99.90;;;;;;5055859;28;20025;-82
2021/01/21 06:41:59;;;;;;;2.28;1.50;;;10.30;99.90;;;;;;5054087;28;20025;-82
2021/01/21 06:44:26;;;;;;;1.95;1.17;;;10.30;99.90;;;;;;5053890;28;20036;-82
2021/01/21 06:46:53;;;;;;;1.65;1.20;;;10.20;99.90;;;;;;5055542;28;20572;-82
2021/01/21 06:49:19;;;;;;;2.67;1.20;;;10.20;99.90;;;;;;5055498;28;20017;-82
2021/01/21 06:51:49;;;;;;;2.38;1.48;;;10.20;99.90;;;;;;5055370;28;20044;-82
2021/01/21 06:54:16;;;;;;;3.20;2.58;;;10.20;99.90;;;;;;5055524;28;20028;-82
2021/01/21 06:56:41;;;;;;;3.20;2.20;;;10.20;99.90;;;;;;5036338;28;20060;-82
2021/01/21 06:59:07;;;;;;;4.47;2.20;;;10.20;99.90;;;;;;5034775;28;20474;-82
2021/01/21 07:01:33;;;;;;;2.15;1.90;;;10.10;99.90;;;;;;5035110;28;20082;-82
2021/01/21 07:04:05;;;;;;;2.17;1.70;;;10.20;99.90;;;;;;5035185;28;20029;-82
2021/01/21 07:06:52;;;;;;;2.55;1.30;;;10.10;99.90;;;;;;5033850;28;20021;-82
2021/01/21 07:09:20;;;;;;;1.27;1.17;;;10.10;99.90;;;;;;5035134;28;20021;-82
2021/01/21 07:11:47;;;;;;;1.40;1.23;;;10.20;99.90;;;;;;5015065;28;20022;-82
2021/01/21 07:14:19;;;;;;;2.97;1.33;;;10.10;99.90;;;;;;5013542;28;20403;-82
2021/01/21 07:17:08;;;;;;;1.98;1.35;;;10.10;99.90;;;;;;5015356;28;20041;-82
2021/01/21 07:19:38;;;;;;;3.35;1.75;;;10.10;99.90;;;;;;5013556;28;20038;-82
2021/01/21 07:22:31;;;;;;;4.88;1.85;;;10.10;99.90;;;;;;5016945;28;20437;-82
2021/01/21 07:24:59;;;;;;;2.60;1.70;;;10.20;99.90;;;;;;5052519;28;20120;-82
2021/01/21 07:27:27;;;;;;;6.57;2.70;;;10.20;99.90;;;;;;5054629;28;20044;-82
2021/01/21 07:30:15;;;;;;;3.63;3.05;;;10.30;99.90;;;;;;5054491;28;20025;-82
2021/01/21 07:32:40;;;;;;;3.50;2.97;;;10.30;99.90;;;;;;5054544;28;20024;-82
2021/01/21 07:35:31;;;;;;;2.95;2.55;;;10.20;99.90;;;;;;5054574;28;20023;-82
2021/01/21 07:37:57;;;;;;;6.45;3.78;;;10.20;99.90;;;;;;5042288;28;20376;-82
2021/01/21 07:40:46;;;;;;;4.18;2.25;;;10.20;99.90;;;;;;5034582;28;20036;-82
2021/01/21 07:43:12;;;;;;;3.20;1.77;;;10.30;99.90;;;;;;5034149;28;20502;-82
2021/01/21 07:45:38;;;;;;;2.20;1.45;;;10.30;99.90;;;;;;5033643;28;20052;-82
2021/01/21 07:48:24;;;;;;;1.73;1.50;;;10.30;99.90;;;;;;5034491;28;20467;-82
2021/01/21 07:50:50;;;;;;;3.00;1.27;;;10.30;99.90;;;;;;5034568;28;20013;-82
2021/01/21 07:53:21;;;;;;;1.40;1.30;;;10.40;99.90;;;;;;5049072;28;20033;-82
2021/01/21 07:55:48;;;;;;;1.92;1.40;;;10.40;99.90;;;;;;5054348;28;20017;-82
2021/01/21 07:58:24;;;;;;;2.45;1.98;;;10.40;99.90;;;;;;5053648;28;20033;-82
2021/01/21 08:00:55;;;;;;;2.83;1.50;;;10.40;99.90;;;;;;5048252;28;20025;-82
2021/01/21 08:03:35;;;;;;;3.80;1.40;;;10.40;99.90;;;;;;5034351;28;20030;-82
2021/01/21 08:06:10;;;;;;;2.35;1.60;;;10.40;99.90;;;;;;5047625;28;20032;-82
2021/01/21 08:08:43;;;;;;;2.08;1.60;;;10.50;99.90;;;;;;5053922;28;20025;-82
2021/01/21 08:11:12;;;;;;;2.22;1.50;;;10.60;99.90;;;;;;5053628;28;20096;-82
2021/01/21 08:13:38;;;;;;;4.72;1.55;;;10.70;99.90;;;;;;5053846;28;20029;-82
2021/01/21 08:16:05;;;;;;;2.35;1.50;;;10.70;99.90;;;;;;5053926;28;20437;-82
2021/01/21 08:18:34;;;;;;;2.08;1.83;;;10.80;99.90;;;;;;5053844;28;20083;-82
2021/01/21 08:20:59;;;;;;;3.33;1.92;;;10.80;99.90;;;;;;5037073;28;20069;-83
2021/01/21 08:23:25;;;;;;;3.72;2.05;;;10.80;99.90;;;;;;5033820;28;20025;-83
2021/01/21 08:25:55;;;;;;;3.88;2.47;;;10.90;99.90;;;;;;5033535;28;20056;-83
2021/01/21 08:28:22;;;;;;;3.35;1.85;;;11.00;99.90;;;;;;5032318;28;20541;-83
2021/01/21 08:30:49;;;;;;;3.30;2.20;;;10.90;99.90;;;;;;5033629;28;20017;-82
2021/01/21 08:33:29;;;;;;;3.45;2.00;;;11.00;99.90;;;;;;5043194;28;20108;-82
2021/01/21 08:36:05;;;;;;;3.28;2.22;;;11.00;99.90;;;;;;5053403;28;20021;-82
2021/01/21 08:38:36;;;;;;;3.42;1.60;;;11.10;99.90;;;;;;5053441;28;20036;-82
2021/01/21 08:41:05;;;;;;;5.47;1.70;;;11.10;99.90;;;;;;5052977;28;20021;-82
2021/01/21 08:43:36;;;;;;;3.38;1.65;;;11.10;99.90;;;;;;5053413;28;20029;-82
2021/01/21 08:46:14;;;;;;;4.45;2.30;;;11.20;99.90;;;;;;5047568;28;20506;-82
2021/01/21 08:48:39;;;;;;;2.78;1.50;;;11.20;99.90;;;;;;5033236;28;20033;-82
2021/01/21 08:51:34;;;;;;;4.22;1.88;;;11.30;99.90;;;;;;5033177;28;20030;-82
2021/01/21 08:54:16;;;;;;;2.42;1.60;;;11.30;99.90;;;;;;5033216;28;20033;-82
2021/01/21 08:56:41;;;;;;;2.20;1.48;;;11.20;99.90;;;;;;5032840;28;20022;-82
2021/01/21 08:59:27;;;;;;;3.08;1.50;;;11.30;99.90;;;;;;5032684;28;20466;-82
2021/01/21 09:01:54;;;;;;;4.93;1.75;;;11.40;99.90;;;;;;5032557;28;20034;-82
2021/01/21 09:04:31;;;;;;;2.05;1.50;;;11.30;99.90;;;;;;5033061;28;20116;-83
2021/01/21 09:06:59;;;;;;;3.28;1.50;;;11.40;99.90;;;;;;5032925;28;20101;-82
2021/01/21 09:09:34;;;;;;;2.10;1.80;;;11.50;99.90;;;;;;5032479;28;20053;-82
2021/01/21 09:12:23;;;;;;;3.85;1.60;;;11.60;99.90;;;;;;5031960;28;20028;-82
2021/01/21 09:15:01;;;;;;;2.30;1.60;;;11.60;99.90;;;;;;5033075;28;20025;-82
2021/01/21 09:17:27;;;;;;;3.22;1.75;;;12.30;99.90;;;;;;5032984;28;20028;-82
2021/01/21 09:19:53;;;;;;;3.50;1.90;;;13.20;99.90;;;;;;5032840;28;20029;-82
2021/01/21 09:22:22;;;;;;;3.22;2.13;;;18.60;99.90;;;;;;5031945;28;20029;-83
2021/01/21 09:24:58;;;;;;;2.88;2.20;;;17.40;99.90;;;;;;5030969;28;20033;-83
2021/01/21 09:27:24;;;;;;;3.17;2.05;;;19.90;99.90;;;;;;5032837;28;20101;-83
2021/01/21 09:29:56;;;;;;;4.68;2.40;;;22.30;99.90;;;;;;5032581;28;20079;-83
2021/01/21 09:32:34;;;;;;;4.45;3.45;;;23.70;99.90;;;;;;5032597;28;20090;-83
2021/01/21 09:35:13;;;;;;;4.63;3.47;;;22.20;99.90;;;;;;5032277;28;20514;-83
2021/01/21 09:37:47;;;;;;;3.80;2.50;;;21.90;99.90;;;;;;5031218;28;20113;-83
2021/01/21 09:40:19;;;;;;;2.92;1.90;;;24.10;99.90;;;;;;5032229;28;20475;-81
2021/01/21 09:42:45;;;;;;;4.85;2.53;;;22.40;99.90;;;;;;5032449;28;20013;-81
2021/01/21 09:45:11;;;;;;;5.55;2.60;;;18.70;99.90;;;;;;5032333;28;20079;-81
2021/01/21 09:47:37;;;;;;;2.50;1.60;;;16.70;99.90;;;;;;5031145;28;20398;-81
2021/01/21 09:50:04;;;;;;;4.57;2.17;;;16.70;99.90;;;;;;5031886;28;20030;-80
2021/01/21 09:52:31;;;;;;;6.75;3.25;;;17.00;99.90;;;;;;5030705;28;20049;-81
2021/01/21 09:54:56;;;;;;;3.90;3.45;;;15.80;99.90;;;;;;5042325;28;20025;-80
2021/01/21 09:57:22;;;;;;;3.55;2.90;;;15.50;99.90;;;;;;5052265;28;20031;-80
2021/01/21 09:59:47;;;;;;;4.28;2.65;;;14.70;99.90;;;;;;5050679;28;20498;-80
2021/01/21 10:02:13;;;;;;;3.78;2.30;;;14.40;99.90;;;;;;5034869;28;20060;-80
2021/01/21 10:04:40;;;;;;;3.63;2.17;;;13.90;99.90;;;;;;5046678;28;20052;-80
2021/01/21 10:07:07;;;;;;;4.85;2.58;;;13.80;99.90;;;;;;5051775;28;20052;-80
2021/01/21 10:09:34;;;;;;;2.35;2.00;;;13.90;99.90;;;;;;5055064;28;20017;-80
2021/01/21 10:12:00;;;;;;;3.42;2.03;;;13.80;99.90;;;;;;5056076;28;20501;-80
2021/01/21 10:14:26;;;;;;;4.60;2.28;;;13.80;99.90;;;;;;5056351;28;20021;-80
2021/01/21 10:16:52;;;;;;;3.75;1.80;;;13.50;99.90;;;;;;5055931;28;20483;-80
2021/01/21 10:19:17;;;;;;;3.90;2.70;;;13.50;99.90;;;;;;5040460;28;20112;-80
2021/01/21 10:21:43;;;;;;;11.43;4.43;;;13.30;99.90;;;;;;5035849;28;20120;-80
2021/01/21 10:24:09;;;;;;;4.45;2.10;;;13.30;99.90;;;;;;5035905;28;20119;-80
2021/01/21 10:26:35;;;;;;;4.22;2.08;;;13.50;99.90;;;;;;5035973;28;20025;-80
2021/01/21 10:29:00;;;;;;;5.03;2.47;;;13.20;99.90;;;;;;5035704;28;20064;-80
2021/01/21 10:31:26;;;;;;;6.35;3.35;;;13.20;99.90;;;;;;5035961;28;20479;-80
2021/01/21 10:33:52;;;;;;;4.93;2.75;;;13.40;99.90;;;;;;5035771;28;20025;-80
2021/01/21 10:36:18;;;;;;;5.47;3.17;;;13.40;99.90;;;;;;5035320;28;20112;-80
2021/01/21 10:38:43;;;;;;;3.65;2.50;;;13.30;99.90;;;;;;5035706;28;20104;-80
2021/01/21 10:41:10;;;;;;;3.22;2.33;;;13.40;99.90;;;;;;5035884;28;20037;-80
2021/01/21 10:43:36;;;;;;;3.42;2.15;;;13.80;99.90;;;;;;5035653;28;20402;-80
2021/01/21 10:46:01;;;;;;;4.45;2.33;;;14.20;99.90;;;;;;5034799;28;20096;-80
2021/01/21 10:48:27;;;;;;;4.40;3.30;;;14.50;99.90;;;;;;5035482;28;20029;-80
2021/01/21 10:50:53;;;;;;;3.75;2.90;;;14.60;99.90;;;;;;5035190;28;20506;-80
2021/01/21 10:53:19;;;;;;;3.38;2.08;;;15.40;99.90;;;;;;5035548;28;20487;-80
2021/01/21 10:55:45;;;;;;;3.13;2.15;;;15.50;99.90;;;;;;5035356;28;20025;-80
2021/01/21 10:58:11;;;;;;;2.42;1.70;;;15.50;99.90;;;;;;5041103;28;20016;-80
2021/01/21 11:00:37;;;;;;;3.35;2.33;;;15.10;99.90;;;;;;5051129;28;20044;-81
2021/01/21 11:03:03;;;;;;;4.20;2.17;;;15.10;99.90;;;;;;5035248;28;20030;-81
2021/01/21 11:05:29;;;;;;;5.53;2.40;;;15.00;99.90;;;;;;5035010;28;20434;-81
2021/01/21 11:07:54;;;;;;;3.30;1.73;;;14.80;99.90;;;;;;5033787;28;20030;-81
2021/01/21 11:10:20;;;;;;;1.75;1.65;;;14.90;99.90;;;;;;5035056;28;20009;-81
2021/01/21 11:12:48;;;;;;;3.25;2.35;;;15.00;99.90;;;;;;5039266;28;20053;-81
2021/01/21 11:15:18;;;;;;;2.60;2.20;;;15.20;99.90;;;;;;5054874;28;20083;-80
2021/01/21 11:17:45;;;;;;;3.60;2.63;;;15.80;99.90;;;;;;5055017;28;20037;-80
2021/01/21 11:20:12;;;;;;;4.65;2.22;;;15.90;99.90;;;;;;5053320;28;20096;-81
2021/01/21 11:22:38;;;;;;;3.00;1.80;;;17.70;99.90;;;;;;5053557;28;20028;-81
2021/01/21 11:25:07;;;;;;;3.67;2.03;;;19.60;99.90;;;;;;5053379;28;20021;-81
2021/01/21 11:27:34;;;;;;;2.42;1.60;;;19.20;99.90;;;;;;5048966;28;20084;-81
2021/01/21 11:30:00;;;;;;;4.18;2.22;;;18.00;99.90;;;;;;5034768;28;20030;-81
2021/01/21 11:32:25;;;;;;;3.85;2.28;;;18.30;99.90;;;;;;5034775;28;20030;-83
2021/01/21 11:34:51;;;;;;;3.03;1.88;;;18.50;99.90;;;;;;5034438;28;20021;-83
2021/01/21 11:37:16;;;;;;;5.07;2.40;;;17.80;99.90;;;;;;5034471;28;20391;-83
2021/01/21 11:39:42;;;;;;;3.03;1.83;;;17.50;99.90;;;;;;5034604;28;20025;-83
2021/01/21 11:42:08;;;;;;;2.47;1.90;;;17.60;99.90;;;;;;5034679;28;20038;-83
2021/01/21 11:44:33;;;;;;;5.38;2.03;;;17.10;99.90;;;;;;5034568;28;20025;-83
2021/01/21 11:46:59;;;;;;;3.92;2.20;;;16.60;99.90;;;;;;5034459;28;20403;-83
2021/01/21 11:49:25;;;;;;;3.65;1.80;;;17.00;99.90;;;;;;5034176;28;20021;-83
2021/01/21 11:51:50;;;;;;;4.32;1.90;;;17.40;99.90;;;;;;5034406;28;20025;-83
2021/01/21 11:54:16;;;;;;;4.40;2.33;;;18.10;99.90;;;;;;5034354;28;20316;-83
2021/01/21 11:56:41;;;;;;;11.35;2.53;;;19.30;99.90;;;;;;5034241;28;20030;-83
2021/01/21 11:59:07;;;;;;;4.45;1.90;;;18.90;99.90;;;;;;5033818;28;20045;-83
2021/01/21 12:01:33;;;;;;;3.25;2.42;;;19.20;99.90;;;;;;5034085;28;20033;-83
2021/01/21 12:03:59;;;;;;;4.45;1.90;;;18.30;99.90;;;;;;5033780;28;20068;-83
2021/01/21 12:06:25;;;;;;;6.20;2.08;;;17.50;99.90;;;;;;5034101;28;20049;-83
2021/01/21 12:08:50;;;;;;;4.78;2.53;;;17.90;99.90;;;;;;5034181;28;20032;-83
2021/01/21 12:11:16;;;;;;;3.92;2.25;;;17.30;99.90;;;;;;5033838;28;20442;-83
2021/01/21 12:13:42;;;;;;;2.80;1.73;;;16.90;99.90;;;;;;5033868;28;20537;-83
2021/01/21 12:16:08;;;;;;;3.20;1.67;;;16.70;99.90;;;;;;5034083;28;20030;-83
2021/01/21 12:18:33;;;;;;;3.38;2.60;;;16.80;99.90;;;;;;5033459;28;20033;-83
2021/01/21 12:20:59;;;;;;;7.68;3.22;;;16.50;99.90;;;;;;5034147;28;20037;-83
2021/01/21 12:23:25;;;;;;;4.13;2.20;;;16.70;99.90;;;;;;5042930;28;20060;-83
2021/01/21 12:25:50;;;;;;;5.25;2.22;;;17.10;99.90;;;;;;5053903;28;20033;-83
2021/01/21 12:28:16;;;;;;;4.15;2.05;;;16.50;99.90;;;;;;5053688;28;20025;-83
2021/01/21 12:30:42;;;;;;;4.70;2.70;;;16.20;99.90;;;;;;5047396;28;20068;-83
2021/01/21 12:33:07;;;;;;;5.15;2.15;;;16.30;99.90;;;;;;5033149;28;20022;-83
2021/01/21 12:35:33;;;;;;;6.03;1.98;;;16.00;99.90;;;;;;5033705;28;20679;-83
2021/01/21 12:37:58;;;;;;;3.28;2.00;;;15.60;99.90;;;;;;5033503;28;20036;-83
2021/01/21 12:40:25;;;;;;;3.67;1.92;;;15.10;99.90;;;;;;5033456;28;20037;-83
2021/01/21 12:42:50;;;;;;;6.45;2.30;;;15.10;99.90;;;;;;5033599;28;20144;-83
2021/01/21 12:45:16;;;;;;;5.30;2.38;;;15.00;99.90;;;;;;5033132;28;20495;-83
2021/01/21 12:47:42;;;;;;;5.53;2.80;;;15.00;99.90;;;;;;5032882;28;20068;-83
2021/01/21 12:50:08;;;;;;;4.53;2.85;;;15.10;99.90;;;;;;5033298;28;20426;-83
2021/01/21 12:52:33;;;;;;;4.70;2.17;;;15.20;99.90;;;;;;5033348;28;20040;-83
2021/01/21 12:54:59;;;;;;;5.95;2.60;;;15.60;99.90;;;;;;5033156;28;20033;-83